createdAt,value
2018-02-05T00:00:53.015Z,79.10
2018-02-05T00:03:20.563Z,78.52
2018-02-05T00:05:48.189Z,78.72
2018-02-05T00:08:15.790Z,79.59
2018-02-05T00:10:43.525Z,80.37
2018-02-05T00:13:11.365Z,80.57
2018-02-05T00:15:38.918Z,80.59
2018-02-05T00:18:06.548Z,79.76
2018-02-05T00:20:34.126Z,79.77
2018-02-05T00:23:01.742Z,79.94
2018-02-05T00:25:29.293Z,80.29
2018-02-05T00:27:56.855Z,79.90
2018-02-05T00:30:24.413Z,80.21
2018-02-05T00:32:52.092Z,80.67
2018-02-05T00:35:19.677Z,80.36
2018-02-05T00:37:47.275Z,80.39
2018-02-05T00:40:14.882Z,80.94
2018-02-05T00:42:42.450Z,80.52
2018-02-05T00:45:10.005Z,81.70
2018-02-05T00:47:37.570Z,81.97
2018-02-05T00:50:05.337Z,81.31
2018-02-05T00:52:32.927Z,81.24
2018-02-05T00:55:00.507Z,80.55
2018-02-05T00:57:28.087Z,80.10
2018-02-05T00:59:55.653Z,80.47
2018-02-05T01:02:23.213Z,79.88
2018-02-05T01:04:50.940Z,79.23
2018-02-05T01:07:18.498Z,79.25
2018-02-05T01:09:46.276Z,80.01
2018-02-05T01:12:14.080Z,79.20
2018-02-05T01:14:41.634Z,79.41
2018-02-05T01:17:09.432Z,79.57
2018-02-05T01:19:37.250Z,79.30
2018-02-05T01:22:04.826Z,79.04
2018-02-05T01:24:32.560Z,78.68
2018-02-05T01:27:00.175Z,78.71
2018-02-05T01:29:27.741Z,79.14
2018-02-05T01:31:55.310Z,79.59
2018-02-05T01:34:22.970Z,79.11
2018-02-05T01:36:50.525Z,79.50
2018-02-05T01:39:18.121Z,79.85
2018-02-05T01:41:45.899Z,79.60
2018-02-05T01:44:13.516Z,79.36
2018-02-05T01:46:41.306Z,79.70
2018-02-05T01:49:09.066Z,80.18
2018-02-05T01:51:36.884Z,80.37
2018-02-05T01:54:04.702Z,79.36
2018-02-05T01:56:32.362Z,78.69
2018-02-05T01:58:59.921Z,77.98
2018-02-05T02:01:27.715Z,77.99
2018-02-05T02:03:55.292Z,78.00
2018-02-05T02:06:22.862Z,78.06
2018-02-05T02:08:50.444Z,78.67
2018-02-05T02:11:18.006Z,78.35
2018-02-05T02:13:45.574Z,78.39
2018-02-05T02:16:13.130Z,78.34
2018-02-05T02:18:40.941Z,78.33
2018-02-05T02:21:08.501Z,78.00
2018-02-05T02:23:36.318Z,78.41
2018-02-05T02:26:04.036Z,77.98
2018-02-05T02:28:31.754Z,78.80
2018-02-05T02:30:59.373Z,78.79
2018-02-05T02:33:26.933Z,78.85
2018-02-05T02:35:54.500Z,79.96
2018-02-05T02:38:22.072Z,81.33
2018-02-05T02:40:49.630Z,82.16
2018-02-05T02:43:17.197Z,81.77
2018-02-05T02:45:44.885Z,82.35
2018-02-05T02:48:12.577Z,80.93
2018-02-05T02:50:40.138Z,80.06
2018-02-05T02:53:07.699Z,79.28
2018-02-05T02:55:35.341Z,79.27
2018-02-05T02:58:03.001Z,79.75
2018-02-05T03:00:30.566Z,79.12
2018-02-05T03:02:58.124Z,79.23
2018-02-05T03:05:25.924Z,78.98
2018-02-05T03:07:53.740Z,78.50
2018-02-05T03:10:21.557Z,78.05
2018-02-05T03:12:49.133Z,78.36
2018-02-05T03:15:16.719Z,79.48
2018-02-05T03:17:44.294Z,79.12
2018-02-05T03:20:11.853Z,80.26
2018-02-05T03:22:39.465Z,79.94
2018-02-05T03:25:07.266Z,79.24
2018-02-05T03:27:34.830Z,80.45
2018-02-05T03:30:02.703Z,79.61
2018-02-05T03:32:30.263Z,79.10
2018-02-05T03:34:57.833Z,78.48
2018-02-05T03:37:25.393Z,79.07
2018-02-05T03:39:53.017Z,81.35
2018-02-05T03:42:20.585Z,80.84
2018-02-05T03:44:48.150Z,80.43
2018-02-05T03:47:15.832Z,79.64
2018-02-05T03:49:43.387Z,79.91
2018-02-05T03:52:11.164Z,79.17
2018-02-05T03:54:38.722Z,79.07
2018-02-05T03:57:06.499Z,79.22
2018-02-05T03:59:34.083Z,78.89
2018-02-05T04:02:01.642Z,78.88
2018-02-05T04:04:29.210Z,79.32
2018-02-05T04:07:02.206Z,78.48
2018-02-05T04:09:30.009Z,78.41
2018-02-05T04:11:57.826Z,78.57
2018-02-05T04:14:25.503Z,79.38
2018-02-05T04:16:53.065Z,78.87
2018-02-05T04:19:20.617Z,79.17
2018-02-05T04:21:48.190Z,78.84
2018-02-05T04:24:15.923Z,78.70
2018-02-05T04:26:43.489Z,79.07
2018-02-05T04:29:11.066Z,78.89
2018-02-05T04:31:38.652Z,78.78
2018-02-05T04:34:06.355Z,78.49
2018-02-05T04:36:34.098Z,78.31
2018-02-05T04:39:01.702Z,77.58
2018-02-05T04:41:29.445Z,79.09
2018-02-05T04:43:57.261Z,79.84
2018-02-05T04:46:24.978Z,78.78
2018-02-05T04:48:52.796Z,78.50
2018-02-05T04:51:20.366Z,77.97
2018-02-05T04:53:48.134Z,78.42
2018-02-05T04:56:15.698Z,79.84
2018-02-05T04:58:43.254Z,80.86
2018-02-05T05:01:10.796Z,81.75
2018-02-05T05:03:38.490Z,81.56
2018-02-05T05:06:06.322Z,81.75
2018-02-05T05:08:33.889Z,81.53
2018-02-05T05:11:01.454Z,81.07
2018-02-05T05:13:29.022Z,79.84
2018-02-05T05:15:56.581Z,79.54
2018-02-05T05:18:24.412Z,80.00
2018-02-05T05:20:52.231Z,80.36
2018-02-05T05:23:19.858Z,80.18
2018-02-05T05:25:47.433Z,79.62
2018-02-05T05:28:15.162Z,80.16
2018-02-05T05:30:42.736Z,80.67
2018-02-05T05:33:10.333Z,80.51
2018-02-05T05:35:38.050Z,80.76
2018-02-05T05:38:05.611Z,80.70
2018-02-05T05:40:33.392Z,80.98
2018-02-05T05:43:00.945Z,81.28
2018-02-05T05:45:28.545Z,81.17
2018-02-05T05:47:56.117Z,81.60
2018-02-05T05:50:23.848Z,81.11
2018-02-05T05:52:51.410Z,80.98
2018-02-05T05:55:18.973Z,80.62
2018-02-05T05:57:46.800Z,81.06
2018-02-05T06:00:14.518Z,81.87
2018-02-05T06:02:42.077Z,82.00
2018-02-05T06:05:09.666Z,82.10
2018-02-05T06:07:37.228Z,81.85
2018-02-05T06:10:04.829Z,82.55
2018-02-05T06:12:32.393Z,82.56
2018-02-05T06:15:00.028Z,81.94
2018-02-05T06:17:27.586Z,81.11
2018-02-05T06:19:55.166Z,80.74
2018-02-05T06:22:22.734Z,80.31
2018-02-05T06:24:50.287Z,79.79
2018-02-05T06:27:17.845Z,78.76
2018-02-05T06:29:45.631Z,78.39
2018-02-05T06:32:13.190Z,79.19
2018-02-05T06:34:40.765Z,79.50
2018-02-05T06:37:08.476Z,79.03
2018-02-05T06:39:36.068Z,79.13
2018-02-05T06:42:03.821Z,79.15
2018-02-05T06:44:31.437Z,78.78
2018-02-05T06:46:59.262Z,78.34
2018-02-05T06:49:27.075Z,77.56
2018-02-05T06:55:13.381Z,77.20
2018-02-05T06:57:40.958Z,76.39
2018-02-05T07:00:08.582Z,76.09
2018-02-05T07:02:36.235Z,73.23
2018-02-05T07:05:03.849Z,68.09
2018-02-05T07:07:31.585Z,62.27
2018-02-05T07:09:59.153Z,56.91
2018-02-05T07:12:26.920Z,53.77
2018-02-05T07:14:54.518Z,50.23
2018-02-05T07:17:22.263Z,49.49
2018-02-05T07:19:50.070Z,50.12
2018-02-05T07:22:17.633Z,48.67
2018-02-05T07:24:45.201Z,46.18
2018-02-05T07:27:12.782Z,42.79
2018-02-05T07:29:40.351Z,40.89
2018-02-05T07:32:08.001Z,39.21
2018-02-05T07:34:35.848Z,39.12
2018-02-05T07:37:03.460Z,40.27
2018-02-05T07:39:31.215Z,38.50
2018-02-05T07:42:00.413Z,39.31
2018-02-05T07:44:28.747Z,38.31
2018-02-05T07:46:56.496Z,40.88
2018-02-05T07:49:24.164Z,40.75
2018-02-05T07:51:53.506Z,43.10
2018-02-05T07:54:21.730Z,43.87
2018-02-05T07:56:49.309Z,43.45
2018-02-05T07:59:17.075Z,43.25
2018-02-05T08:01:44.764Z,42.68
2018-02-05T08:04:12.503Z,42.36
2018-02-05T08:06:40.532Z,42.95
2018-02-05T08:09:08.104Z,42.95
2018-02-05T08:11:36.389Z,41.63
2018-02-05T08:14:04.045Z,39.90
2018-02-05T08:16:32.866Z,39.22
2018-02-05T08:19:00.438Z,42.36
2018-02-05T08:21:28.246Z,42.34
2018-02-05T08:23:55.850Z,41.25
2018-02-05T08:26:23.419Z,39.77
2018-02-05T08:28:50.988Z,42.07
2018-02-05T08:31:18.605Z,41.50
2018-02-05T08:33:46.189Z,42.22
2018-02-05T08:36:13.759Z,40.93
2018-02-05T08:38:41.349Z,42.97
2018-02-05T08:41:09.146Z,42.33
2018-02-05T08:43:36.707Z,41.06
2018-02-05T08:46:04.270Z,43.29
2018-02-05T08:48:32.343Z,42.14
2018-02-05T08:51:00.061Z,40.99
2018-02-05T08:53:27.633Z,39.23
2018-02-05T08:55:55.194Z,40.01
2018-02-05T08:58:22.809Z,38.79
2018-02-05T09:00:50.374Z,39.06
2018-02-05T09:03:18.110Z,40.46
2018-02-05T09:05:45.685Z,42.03
2018-02-05T09:08:13.266Z,44.66
2018-02-05T09:10:40.832Z,42.12
2018-02-05T09:13:08.621Z,40.70
2018-02-05T09:15:36.440Z,41.10
2018-02-05T09:18:04.038Z,38.13
2018-02-05T09:20:31.630Z,36.06
2018-02-05T09:22:59.202Z,36.04
2018-02-05T09:25:27.012Z,33.80
2018-02-05T09:27:54.597Z,35.65
2018-02-05T09:30:22.301Z,34.95
2018-02-05T09:32:50.172Z,35.03
2018-02-05T09:35:17.739Z,36.15
2018-02-05T09:37:45.395Z,35.95
2018-02-05T09:40:12.993Z,35.81
2018-02-05T09:42:40.558Z,34.54
2018-02-05T09:45:08.356Z,34.75
2018-02-05T09:47:35.917Z,34.50
2018-02-05T09:50:03.793Z,35.55
2018-02-05T09:52:31.350Z,34.38
2018-02-05T09:54:58.914Z,34.96
2018-02-05T09:57:26.623Z,34.64
2018-02-05T09:59:54.197Z,35.36
2018-02-05T10:02:21.867Z,36.28
2018-02-05T10:04:49.692Z,37.05
2018-02-05T10:07:17.298Z,37.63
2018-02-05T10:09:45.037Z,36.98
2018-02-05T10:12:12.593Z,38.31
2018-02-05T10:14:40.169Z,35.98
2018-02-05T10:17:07.733Z,39.23
2018-02-05T10:19:35.301Z,37.94
2018-02-05T10:22:03.038Z,35.94
2018-02-05T10:24:30.735Z,35.71
2018-02-05T10:26:58.310Z,36.01
2018-02-05T10:29:25.892Z,37.67
2018-02-05T10:31:53.487Z,38.96
2018-02-05T10:34:21.115Z,38.87
2018-02-05T10:36:48.775Z,36.60
2018-02-05T10:39:16.350Z,37.47
2018-02-05T10:41:44.169Z,36.85
2018-02-05T10:44:11.989Z,35.61
2018-02-05T10:46:39.563Z,34.46
2018-02-05T10:49:07.315Z,35.06
2018-02-05T10:51:35.043Z,34.96
2018-02-05T10:54:02.605Z,36.31
2018-02-05T10:56:30.190Z,36.80
2018-02-05T10:58:57.910Z,37.37
2018-02-05T11:01:25.598Z,38.11
2018-02-05T11:03:53.164Z,38.54
2018-02-05T11:06:20.770Z,37.23
2018-02-05T11:08:48.343Z,36.98
2018-02-05T11:11:15.965Z,34.91
2018-02-05T11:13:43.588Z,36.89
2018-02-05T11:16:11.321Z,36.09
2018-02-05T11:18:38.915Z,36.96
2018-02-05T11:21:06.657Z,37.63
2018-02-05T11:23:34.672Z,38.74
2018-02-05T11:26:02.495Z,37.11
2018-02-05T11:28:30.104Z,37.30
2018-02-05T11:30:57.814Z,36.54
2018-02-05T11:33:25.373Z,34.75
2018-02-05T11:35:52.955Z,33.73
2018-02-05T11:38:20.571Z,33.95
2018-02-05T11:40:48.352Z,33.38
2018-02-05T11:43:15.916Z,34.07
2018-02-05T11:45:43.485Z,33.50
2018-02-05T11:48:11.064Z,32.51
2018-02-05T11:50:38.874Z,32.98
2018-02-05T11:53:06.445Z,32.88
2018-02-05T11:55:33.994Z,32.80
2018-02-05T11:58:01.609Z,32.77
2018-02-05T12:00:29.161Z,31.59
2018-02-05T12:02:56.726Z,34.01
2018-02-05T12:05:24.372Z,32.35
2018-02-05T12:07:54.198Z,30.82
2018-02-05T12:10:22.427Z,32.24
2018-02-05T12:12:50.130Z,33.39
2018-02-05T12:15:17.964Z,33.94
2018-02-05T12:17:45.503Z,31.35
2018-02-05T12:20:13.301Z,33.27
2018-02-05T12:22:40.869Z,32.76
2018-02-05T12:25:08.635Z,33.22
2018-02-05T12:27:36.219Z,33.38
2018-02-05T12:30:03.911Z,32.29
2018-02-05T12:32:31.561Z,32.50
2018-02-05T12:34:59.113Z,31.89
2018-02-05T12:37:26.825Z,32.46
2018-02-05T12:39:54.394Z,30.31
2018-02-05T12:42:21.950Z,29.83
2018-02-05T12:44:49.779Z,29.28
2018-02-05T12:47:17.354Z,30.06
2018-02-05T12:49:44.965Z,30.39
2018-02-05T12:52:12.694Z,29.95
2018-02-05T12:54:40.381Z,30.13
2018-02-05T12:57:08.674Z,28.82
2018-02-05T12:59:37.114Z,28.26
2018-02-05T13:02:06.721Z,28.04
2018-02-05T13:04:39.870Z,28.95
2018-02-05T13:07:07.674Z,26.83
2018-02-05T13:09:35.392Z,28.08
2018-02-05T13:12:02.999Z,26.81
2018-02-05T13:14:30.617Z,27.31
2018-02-05T13:16:58.185Z,26.81
2018-02-05T13:19:25.764Z,27.23
2018-02-05T13:21:53.325Z,26.48
2018-02-05T13:24:21.098Z,26.72
2018-02-05T13:26:48.657Z,26.14
2018-02-05T13:29:16.209Z,27.73
2018-02-05T13:31:43.838Z,27.94
2018-02-05T13:34:11.400Z,27.11
2018-02-05T13:36:38.970Z,27.29
2018-02-05T13:39:06.519Z,27.29
2018-02-05T13:41:34.125Z,26.05
2018-02-05T13:44:01.733Z,26.23
2018-02-05T13:46:29.458Z,26.51
2018-02-05T13:48:57.300Z,26.51
2018-02-05T13:51:24.874Z,26.90
2018-02-05T13:53:52.437Z,26.23
2018-02-05T13:56:20.018Z,27.21
2018-02-05T13:58:47.630Z,26.88
2018-02-05T14:01:15.196Z,26.96
2018-02-05T14:03:42.984Z,26.83
2018-02-05T14:06:10.556Z,25.93
2018-02-05T14:08:38.122Z,26.70
2018-02-05T14:11:05.827Z,26.84
2018-02-05T14:13:33.393Z,26.72
2018-02-05T14:16:01.015Z,27.47
2018-02-05T14:18:28.584Z,28.54
2018-02-05T14:20:56.145Z,28.26
2018-02-05T14:23:23.885Z,29.60
2018-02-05T14:25:51.646Z,29.00
2018-02-05T14:28:19.216Z,29.39
2018-02-05T14:30:46.780Z,29.23
2018-02-05T14:33:14.417Z,29.53
2018-02-05T14:35:42.108Z,28.97
2018-02-05T14:38:09.682Z,29.59
2018-02-05T14:40:37.453Z,30.92
2018-02-05T14:43:05.013Z,31.52
2018-02-05T14:45:32.586Z,31.58
2018-02-05T14:48:00.132Z,32.38
2018-02-05T14:50:27.738Z,32.92
2018-02-05T14:52:55.317Z,33.45
2018-02-05T14:55:23.060Z,34.10
2018-02-05T14:57:50.634Z,35.41
2018-02-05T15:00:18.396Z,36.05
2018-02-05T15:02:46.134Z,36.92
2018-02-05T15:05:13.722Z,37.30
2018-02-05T15:07:41.345Z,41.10
2018-02-05T15:10:08.969Z,43.80
2018-02-05T15:12:36.786Z,46.30
2018-02-05T15:15:04.377Z,47.96
2018-02-05T15:17:31.922Z,50.15
2018-02-05T15:19:59.740Z,51.63
2018-02-05T15:22:27.330Z,52.78
2018-02-05T15:24:55.175Z,53.83
2018-02-05T15:27:22.865Z,54.42
2018-02-05T15:29:50.440Z,54.81
2018-02-05T15:32:18.115Z,55.30
2018-02-05T15:34:45.740Z,56.11
2018-02-05T15:37:13.568Z,56.66
2018-02-05T15:39:41.130Z,57.63
2018-02-05T15:42:08.794Z,58.61
2018-02-05T15:44:36.515Z,58.56
2018-02-05T15:47:04.139Z,59.48
2018-02-05T15:49:32.083Z,59.85
2018-02-05T15:51:59.876Z,60.17
2018-02-05T15:54:27.641Z,60.33
2018-02-05T15:56:55.239Z,60.88
2018-02-05T15:59:22.919Z,60.85
2018-02-05T16:01:50.478Z,60.00
2018-02-05T16:04:18.038Z,60.07
2018-02-05T16:06:45.602Z,61.61
2018-02-05T16:09:13.147Z,61.39
2018-02-05T16:11:40.926Z,62.11
2018-02-05T16:14:08.485Z,63.50
2018-02-05T16:16:36.256Z,62.85
2018-02-05T16:19:04.161Z,63.44
2018-02-05T16:21:31.683Z,63.98
2018-02-05T16:23:59.396Z,64.42
2018-02-05T16:26:27.013Z,64.11
2018-02-05T16:28:54.792Z,64.47
2018-02-05T16:31:22.385Z,64.80
2018-02-05T16:33:50.188Z,66.27
2018-02-05T16:36:17.750Z,65.52
2018-02-05T16:38:45.519Z,65.12
2018-02-05T16:41:13.097Z,64.67
2018-02-05T16:43:40.852Z,65.24
2018-02-05T16:46:08.498Z,66.63
2018-02-05T16:48:36.063Z,66.74
2018-02-05T16:51:03.694Z,66.77
2018-02-05T16:53:31.409Z,67.13
2018-02-05T16:55:58.974Z,66.83
2018-02-05T16:58:26.613Z,65.90
2018-02-05T17:00:54.483Z,67.22
2018-02-05T17:03:22.301Z,67.34
2018-02-05T17:05:50.115Z,67.21
2018-02-05T17:08:17.669Z,67.32
2018-02-05T17:10:45.297Z,68.48
2018-02-05T17:13:13.073Z,68.00
2018-02-05T17:15:40.682Z,67.90
2018-02-05T17:18:08.705Z,67.85
2018-02-05T17:20:36.528Z,67.62
2018-02-05T17:23:04.152Z,68.02
2018-02-05T17:25:31.965Z,67.71
2018-02-05T17:27:59.517Z,66.93
2018-02-05T17:30:27.098Z,67.66
2018-02-05T17:32:54.690Z,69.33
2018-02-05T17:35:22.262Z,69.90
2018-02-05T17:37:50.054Z,69.26
2018-02-05T17:40:17.873Z,68.22
2018-02-05T17:42:45.590Z,67.95
2018-02-05T17:45:13.199Z,69.00
2018-02-05T17:47:40.777Z,69.29
2018-02-05T17:50:08.333Z,69.61
2018-02-05T17:52:36.085Z,69.53
2018-02-05T17:55:03.881Z,70.09
2018-02-05T17:57:31.650Z,70.72
2018-02-05T17:59:59.353Z,70.63
2018-02-05T18:02:27.035Z,70.24
2018-02-05T18:04:54.605Z,69.18
2018-02-05T18:07:22.177Z,71.11
2018-02-05T18:09:49.761Z,71.31
2018-02-05T18:12:17.332Z,72.23
2018-02-05T18:14:44.993Z,72.33
2018-02-05T18:17:12.549Z,72.84
2018-02-05T18:19:40.115Z,73.15
2018-02-05T18:22:07.690Z,73.80
2018-02-05T18:24:35.496Z,73.43
2018-02-05T18:27:03.105Z,73.54
2018-02-05T18:29:30.723Z,73.64
2018-02-05T18:31:58.349Z,73.23
2018-02-05T18:34:26.189Z,72.75
2018-02-05T18:36:53.765Z,73.20
2018-02-05T18:39:21.504Z,72.68
2018-02-05T18:41:49.301Z,72.78
2018-02-05T18:44:16.886Z,72.89
2018-02-05T18:46:44.650Z,73.19
2018-02-05T18:49:12.258Z,73.48
2018-02-05T18:51:39.817Z,73.87
2018-02-05T18:54:07.387Z,74.29
2018-02-05T18:56:44.677Z,74.04
2018-02-05T18:59:12.482Z,74.43
2018-02-05T19:01:40.704Z,74.41
2018-02-05T19:04:08.523Z,73.80
2018-02-05T19:06:36.109Z,74.27
2018-02-05T19:09:03.782Z,74.60
2018-02-05T19:11:31.418Z,74.38
2018-02-05T19:13:58.977Z,74.24
2018-02-05T19:16:26.545Z,74.89
2018-02-05T19:18:54.129Z,75.72
2018-02-05T19:21:21.697Z,75.80
2018-02-05T19:23:49.265Z,75.55
2018-02-05T19:26:16.835Z,75.52
2018-02-05T19:28:44.494Z,75.60
2018-02-05T19:31:12.074Z,75.52
2018-02-05T19:33:39.658Z,75.32
2018-02-05T19:36:07.226Z,75.49
2018-02-05T19:38:34.802Z,75.69
2018-02-05T19:41:02.373Z,75.78
2018-02-05T19:43:29.930Z,74.94
2018-02-05T19:45:57.721Z,75.00
2018-02-05T19:48:25.283Z,75.18
2018-02-05T19:50:52.842Z,75.52
2018-02-05T19:53:20.577Z,75.53
2018-02-05T19:55:48.174Z,75.17
2018-02-05T19:58:15.799Z,75.29
2018-02-05T20:00:43.429Z,75.29
2018-02-05T20:03:11.094Z,75.69
2018-02-05T20:05:38.677Z,76.18
2018-02-05T20:08:06.485Z,76.57
2018-02-05T20:10:34.304Z,77.33
2018-02-05T20:13:02.022Z,78.01
2018-02-05T20:15:29.837Z,77.84
2018-02-05T20:17:57.394Z,76.84
2018-02-05T20:20:25.014Z,76.12
2018-02-05T20:22:52.795Z,76.22
2018-02-05T20:25:20.359Z,77.02
2018-02-05T20:27:48.130Z,76.80
2018-02-05T20:30:15.699Z,76.96
2018-02-05T20:32:43.273Z,76.15
2018-02-05T20:35:10.881Z,76.34
2018-02-05T20:37:38.802Z,77.25
2018-02-05T20:40:06.534Z,77.59
2018-02-05T20:42:34.132Z,77.84
2018-02-05T20:45:01.718Z,77.97
2018-02-05T20:47:29.279Z,78.32
2018-02-05T20:49:56.860Z,78.65
2018-02-05T20:52:24.423Z,78.99
2018-02-05T20:54:52.328Z,79.23
2018-02-05T20:57:19.890Z,79.20
2018-02-05T20:59:47.581Z,78.99
2018-02-05T21:02:15.163Z,79.18
2018-02-05T21:04:42.726Z,79.13
2018-02-05T21:07:10.300Z,78.73
2018-02-05T21:09:37.862Z,78.74
2018-02-05T21:12:05.653Z,78.90
2018-02-05T21:14:33.213Z,79.15
2018-02-05T21:17:00.771Z,79.05
2018-02-05T21:19:28.335Z,78.47
2018-02-05T21:21:55.914Z,78.52
2018-02-05T21:24:23.495Z,78.68
2018-02-05T21:26:51.057Z,78.94
2018-02-05T21:29:18.763Z,80.07
2018-02-05T21:31:46.410Z,80.44
2018-02-05T21:34:14.048Z,80.51
2018-02-05T21:36:41.618Z,79.79
2018-02-05T21:39:09.211Z,79.36
2018-02-05T21:41:36.945Z,78.60
2018-02-05T21:44:04.531Z,78.21
2018-02-05T21:46:32.126Z,78.09
2018-02-05T21:48:59.899Z,77.55
2018-02-05T21:51:27.595Z,77.40
2018-02-05T21:53:55.335Z,77.48
2018-02-05T21:56:22.898Z,77.50
2018-02-05T21:58:50.467Z,77.68
2018-02-05T22:01:18.075Z,77.86
2018-02-05T22:03:45.906Z,77.58
2018-02-05T22:06:13.494Z,77.46
2018-02-05T22:08:41.245Z,77.49
2018-02-05T22:11:08.853Z,77.50
2018-02-05T22:13:36.579Z,77.40
2018-02-05T22:16:04.167Z,77.16
2018-02-05T22:18:31.721Z,77.16
2018-02-05T22:20:59.325Z,77.46
2018-02-05T22:23:27.030Z,77.42
2018-02-05T22:25:54.746Z,77.79
2018-02-05T22:28:22.310Z,77.91
2018-02-05T22:30:49.865Z,77.65
2018-02-05T22:33:17.534Z,77.46
2018-02-05T22:35:45.110Z,77.71
2018-02-05T22:38:12.737Z,77.59
2018-02-05T22:40:40.447Z,77.44
2018-02-05T22:43:08.081Z,77.40
2018-02-05T22:45:35.812Z,77.50
2018-02-05T22:48:03.398Z,77.51
2018-02-05T22:50:31.107Z,77.29
2018-02-05T22:52:58.757Z,77.47
2018-02-05T22:55:26.382Z,77.37
2018-02-05T22:57:54.102Z,77.12
2018-02-05T23:00:21.820Z,77.38
2018-02-05T23:02:49.381Z,77.65
2018-02-05T23:05:16.943Z,77.49
2018-02-05T23:07:44.508Z,77.64
2018-02-05T23:12:38.998Z,77.32
2018-02-05T23:15:06.591Z,77.05
2018-02-05T23:17:34.147Z,77.32
2018-02-05T23:20:01.730Z,77.56
2018-02-05T23:22:29.278Z,77.76
2018-02-05T23:24:56.895Z,77.72
2018-02-05T23:27:24.714Z,77.40
2018-02-05T23:29:52.532Z,77.34
2018-02-05T23:32:20.097Z,77.06
2018-02-05T23:34:47.658Z,77.13
2018-02-05T23:37:15.262Z,76.81
2018-02-05T23:39:42.818Z,76.79
2018-02-05T23:42:10.400Z,77.00
2018-02-05T23:44:38.139Z,76.94
2018-02-05T23:47:05.761Z,77.12
2018-02-05T23:49:33.453Z,77.07
2018-02-05T23:52:01.014Z,76.96
2018-02-05T23:54:28.911Z,77.16
2018-02-05T23:56:56.621Z,77.56
2018-02-05T23:59:24.348Z,77.81
